createdAt,value
2018-08-17T00:00:50.637Z,73.2
2018-08-17T00:02:50.681Z,73.3
2018-08-17T00:04:50.206Z,73.3
2018-08-17T00:06:50.574Z,73.5
2018-08-17T00:08:50.747Z,73.5
2018-08-17T00:10:50.763Z,73.6
2018-08-17T00:12:49.872Z,73.3
2018-08-17T00:14:50.004Z,73.5
2018-08-17T00:16:50.286Z,73.3
2018-08-17T00:18:50.330Z,73.7
2018-08-17T00:20:50.302Z,73.7
2018-08-17T00:22:50.374Z,74.0
2018-08-17T00:24:50.497Z,73.7
2018-08-17T00:26:50.774Z,74.0
2018-08-17T00:28:49.790Z,74.2
2018-08-17T00:30:49.869Z,74.4
2018-08-17T00:32:49.882Z,74.1
2018-08-17T00:34:50.449Z,74.1
2018-08-17T00:36:50.742Z,74.2
2018-08-17T00:38:50.799Z,75.0
2018-08-17T00:40:49.913Z,74.0
2018-08-17T00:42:50.266Z,74.2
2018-08-17T00:44:50.288Z,74.4
2018-08-17T00:46:50.501Z,74.0
2018-08-17T00:48:50.657Z,74.5
2018-08-17T00:50:50.705Z,74.6
2018-08-17T00:52:49.936Z,74.9
2018-08-17T00:54:49.919Z,74.7
2018-08-17T00:56:50.255Z,74.7
2018-08-17T00:58:50.392Z,75.0
2018-08-17T01:00:50.591Z,75.1
2018-08-17T01:02:50.708Z,75.2
2018-08-17T01:04:50.192Z,75.2
2018-08-17T01:06:50.511Z,75.3
2018-08-17T01:08:50.626Z,75.3
2018-08-17T01:10:50.676Z,75.7
2018-08-17T01:12:49.872Z,76.2
2018-08-17T01:14:50.004Z,76.2
2018-08-17T01:16:50.329Z,76.8
2018-08-17T01:18:50.426Z,77.2
2018-08-17T01:20:50.512Z,77.1
2018-08-17T01:22:50.639Z,76.6
2018-08-17T01:24:50.776Z,77.3
2018-08-17T01:26:50.111Z,77.4
2018-08-17T01:28:50.187Z,77.6
2018-08-17T01:30:50.253Z,77.5
2018-08-17T01:32:50.385Z,77.5
2018-08-17T01:34:49.930Z,77.6
2018-08-17T01:36:50.222Z,77.8
2018-08-17T01:38:50.326Z,78.0
2018-08-17T01:40:50.315Z,78.0
2018-08-17T01:42:50.474Z,78.3
2018-08-17T01:44:50.656Z,78.1
2018-08-17T01:46:50.056Z,78.9
2018-08-17T01:48:50.036Z,79.0
2018-08-17T01:50:50.161Z,79.0
2018-08-17T01:52:50.340Z,79.1
2018-08-17T01:54:50.436Z,79.0
2018-08-17T01:56:50.740Z,79.5
2018-08-17T01:58:49.798Z,80.2
2018-08-17T02:00:50.052Z,80.0
2018-08-17T02:02:50.183Z,80.2
2018-08-17T02:04:50.559Z,80.5
2018-08-17T02:06:49.977Z,81.2
2018-08-17T02:08:50.164Z,81.7
2018-08-17T02:10:50.244Z,81.4
2018-08-17T02:12:50.412Z,81.4
2018-08-17T02:14:50.854Z,81.0
2018-08-17T02:16:50.141Z,81.5
2018-08-17T02:18:50.188Z,81.5
2018-08-17T02:20:50.186Z,81.6
2018-08-17T02:22:50.413Z,81.8
2018-08-17T02:24:50.532Z,81.8
2018-08-17T02:26:49.883Z,81.8
2018-08-17T02:28:49.893Z,82.0
2018-08-17T02:30:50.025Z,81.8
2018-08-17T02:32:50.215Z,81.8
2018-08-17T02:34:50.726Z,82.0
2018-08-17T02:36:50.022Z,82.0
2018-08-17T02:38:50.139Z,82.1
2018-08-17T02:40:50.217Z,82.3
2018-08-17T02:42:50.432Z,82.6
2018-08-17T02:44:50.581Z,82.6
2018-08-17T02:46:49.812Z,82.4
2018-08-17T02:48:49.843Z,82.9
2018-08-17T02:50:49.852Z,83.3
2018-08-17T02:52:50.068Z,83.1
2018-08-17T02:54:50.201Z,83.1
2018-08-17T02:56:50.588Z,83.4
2018-08-17T02:58:50.688Z,83.9
2018-08-17T03:00:49.925Z,83.9
2018-08-17T03:02:50.214Z,84.1
2018-08-17T03:04:50.698Z,83.9
2018-08-17T03:06:50.033Z,83.9
2018-08-17T03:08:50.103Z,83.8
2018-08-17T03:10:50.138Z,83.8
2018-08-17T03:12:50.266Z,84.2
2018-08-17T03:14:50.319Z,84.3
2018-08-17T03:16:50.551Z,84.6
2018-08-17T03:18:50.771Z,84.6
2018-08-17T03:20:50.008Z,84.6
2018-08-17T03:22:50.219Z,84.6
2018-08-17T03:24:50.375Z,84.8
2018-08-17T03:26:50.587Z,84.5
2018-08-17T03:28:50.623Z,84.5
2018-08-17T03:30:50.783Z,84.3
2018-08-17T03:32:50.143Z,84.3
2018-08-17T03:34:50.585Z,83.8
2018-08-17T03:36:49.778Z,84.0
2018-08-17T03:38:49.813Z,83.6
2018-08-17T03:40:49.930Z,83.6
2018-08-17T03:42:50.194Z,83.9
2018-08-17T03:44:50.378Z,83.9
2018-08-17T03:46:50.647Z,84.0
2018-08-17T03:48:50.726Z,84.4
2018-08-17T03:50:50.793Z,84.7
2018-08-17T03:52:49.973Z,84.8
2018-08-17T03:54:50.249Z,85.2
2018-08-17T03:56:50.575Z,85.2
2018-08-17T03:58:50.584Z,85.8
2018-08-17T04:00:50.678Z,85.8
2018-08-17T04:02:49.907Z,85.8
2018-08-17T04:04:50.430Z,86.3
2018-08-17T04:06:49.805Z,86.5
2018-08-17T04:08:49.887Z,85.8
2018-08-17T04:10:49.990Z,85.6
2018-08-17T04:12:50.133Z,85.6
2018-08-17T04:14:50.157Z,85.5
2018-08-17T04:16:50.341Z,85.9
2018-08-17T04:18:50.464Z,85.6
2018-08-17T04:20:50.612Z,85.6
2018-08-17T04:22:49.889Z,85.6
2018-08-17T04:24:49.882Z,85.4
2018-08-17T04:26:49.787Z,86.0
2018-08-17T04:28:49.797Z,85.9
2018-08-17T04:30:50.034Z,86.0
2018-08-17T04:32:50.076Z,85.6
2018-08-17T04:34:50.394Z,85.7
2018-08-17T04:36:50.639Z,85.4
2018-08-17T04:38:50.745Z,85.0
2018-08-17T04:40:49.889Z,85.4
2018-08-17T04:42:49.836Z,85.1
2018-08-17T04:44:50.012Z,85.4
2018-08-17T04:46:50.469Z,85.4
2018-08-17T04:48:50.567Z,85.0
2018-08-17T04:50:50.610Z,84.7
2018-08-17T04:52:50.641Z,84.2
2018-08-17T04:54:50.734Z,83.9
2018-08-17T04:56:50.132Z,83.8
2018-08-17T04:58:50.180Z,83.8
2018-08-17T05:00:50.290Z,83.7
2018-08-17T05:02:50.500Z,82.8
2018-08-17T05:04:50.201Z,82.4
2018-08-17T05:06:50.381Z,81.9
2018-08-17T05:08:50.738Z,81.7
2018-08-17T05:10:49.816Z,81.6
2018-08-17T05:12:49.895Z,81.5
2018-08-17T05:14:49.972Z,81.5
2018-08-17T05:16:50.141Z,81.0
2018-08-17T05:18:50.173Z,80.9
2018-08-17T05:20:50.374Z,80.8
2018-08-17T05:22:50.468Z,79.5
2018-08-17T05:24:50.524Z,78.7
2018-08-17T05:26:49.807Z,78.1
2018-08-17T05:28:49.864Z,77.8
2018-08-17T05:30:50.095Z,77.3
2018-08-17T05:32:50.134Z,76.2
2018-08-17T05:34:50.461Z,75.7
2018-08-17T05:36:50.236Z,70
2018-08-17T05:38:50.297Z,70
2018-08-17T05:40:50.454Z,70
2018-08-17T05:42:50.638Z,70
2018-08-17T05:44:50.751Z,69
2018-08-17T05:46:50.196Z,69
2018-08-17T05:48:50.291Z,69
2018-08-17T05:50:50.459Z,69
2018-08-17T05:52:50.553Z,69
2018-08-17T05:54:50.735Z,69
2018-08-17T05:56:50.105Z,69
2018-08-17T05:58:50.115Z,69
2018-08-17T06:00:50.124Z,69
2018-08-17T06:02:50.751Z,69
2018-08-17T06:04:50.323Z,69
2018-08-17T06:06:50.280Z,69
2018-08-17T06:08:50.633Z,69
2018-08-17T06:10:50.293Z,68
2018-08-17T06:12:50.517Z,68
2018-08-17T06:14:50.706Z,68
2018-08-17T06:16:50.160Z,68
2018-08-17T06:18:50.280Z,68
2018-08-17T06:20:50.394Z,67
2018-08-17T06:22:50.532Z,67
2018-08-17T06:24:50.639Z,67
2018-08-17T06:26:50.041Z,67
2018-08-17T06:28:50.193Z,67
2018-08-17T06:30:50.279Z,67
2018-08-17T06:32:50.378Z,67
2018-08-17T06:34:49.859Z,67
2018-08-17T06:36:50.165Z,66
2018-08-17T06:38:50.340Z,66
2018-08-17T06:40:50.535Z,66
2018-08-17T06:42:50.678Z,66
2018-08-17T06:44:50.681Z,66
2018-08-17T06:46:49.957Z,65
2018-08-17T06:48:50.136Z,65
2018-08-17T06:50:51.410Z,65
2018-08-17T06:52:49.807Z,64
2018-08-17T06:54:49.866Z,64
2018-08-17T06:56:50.248Z,64
2018-08-17T06:58:50.356Z,64
2018-08-17T07:00:50.474Z,64
2018-08-17T07:02:50.599Z,63
2018-08-17T07:04:50.089Z,63
2018-08-17T07:06:50.718Z,63
2018-08-17T07:08:51.518Z,62
2018-08-17T07:10:50.631Z,62
2018-08-17T07:12:50.775Z,62
2018-08-17T07:14:49.785Z,61
2018-08-17T07:16:50.210Z,61
2018-08-17T07:18:50.318Z,61
2018-08-17T07:20:50.300Z,61
2018-08-17T07:22:50.392Z,61
2018-08-17T07:24:50.529Z,60
2018-08-17T07:26:49.830Z,60
2018-08-17T07:28:50.057Z,60
2018-08-17T07:30:50.107Z,60
2018-08-17T07:32:50.131Z,59
2018-08-17T07:34:50.540Z,59
2018-08-17T07:36:49.870Z,58
2018-08-17T07:38:50.011Z,58
2018-08-17T07:40:50.055Z,58
2018-08-17T07:42:50.062Z,58
2018-08-17T07:44:50.140Z,58
2018-08-17T07:46:50.608Z,58
2018-08-17T07:48:50.731Z,58
2018-08-17T07:50:50.749Z,57
2018-08-17T07:52:49.833Z,57
2018-08-17T07:54:49.960Z,54
2018-08-17T07:56:50.406Z,53
2018-08-17T07:58:50.517Z,55
2018-08-17T08:00:50.514Z,55
2018-08-17T08:02:50.621Z,54
2018-08-17T08:04:50.131Z,55
2018-08-17T08:06:50.602Z,54
2018-08-17T08:08:50.691Z,54
2018-08-17T08:10:50.782Z,52
2018-08-17T08:12:50.765Z,52
2018-08-17T08:14:49.828Z,52
2018-08-17T08:16:50.139Z,52
2018-08-17T08:18:50.301Z,52
2018-08-17T08:20:50.417Z,52
2018-08-17T08:22:50.478Z,52
2018-08-17T08:24:50.618Z,50
2018-08-17T08:26:49.887Z,50
2018-08-17T08:28:50.164Z,49
2018-08-17T08:30:50.178Z,49
2018-08-17T08:32:50.205Z,49
2018-08-17T08:34:50.659Z,49
2018-08-17T08:36:49.948Z,49
2018-08-17T08:38:50.094Z,49
2018-08-17T08:40:50.154Z,49
2018-08-17T08:42:50.372Z,48
2018-08-17T08:44:50.429Z,48
2018-08-17T08:46:50.741Z,49
2018-08-17T08:48:49.943Z,49
2018-08-17T08:50:50.305Z,48
2018-08-17T08:52:50.426Z,47
2018-08-17T08:54:50.439Z,47
2018-08-17T08:56:50.715Z,47
2018-08-17T08:58:50.774Z,46
2018-08-17T09:00:49.899Z,47
2018-08-17T09:02:50.211Z,45
2018-08-17T09:04:50.705Z,45
2018-08-17T09:06:50.074Z,45
2018-08-17T09:08:50.062Z,46
2018-08-17T09:10:50.126Z,43
2018-08-17T09:12:50.165Z,44
2018-08-17T09:14:50.386Z,44
2018-08-17T09:16:50.784Z,43
2018-08-17T09:18:49.927Z,44
2018-08-17T09:20:50.544Z,44
2018-08-17T09:22:50.701Z,43
2018-08-17T09:24:49.832Z,43
2018-08-17T09:26:50.199Z,41
2018-08-17T09:28:50.287Z,41
2018-08-17T09:30:50.365Z,41
2018-08-17T09:32:50.478Z,42
2018-08-17T09:34:50.084Z,42
2018-08-17T09:36:50.424Z,42
2018-08-17T09:38:50.513Z,42
2018-08-17T09:40:50.557Z,42
2018-08-17T09:42:50.618Z,40
2018-08-17T09:44:49.792Z,40
2018-08-17T09:46:50.271Z,40
2018-08-17T09:48:50.331Z,39
2018-08-17T09:50:50.341Z,39
2018-08-17T09:52:50.405Z,39
2018-08-17T09:54:50.597Z,40
2018-08-17T09:56:49.896Z,40
2018-08-17T09:58:49.967Z,37
2018-08-17T10:00:50.015Z,37
2018-08-17T10:02:50.356Z,39
2018-08-17T10:04:49.893Z,40
2018-08-17T10:06:50.222Z,40
2018-08-17T10:08:50.353Z,40
2018-08-17T10:10:50.127Z,40
2018-08-17T10:12:50.841Z,38
2018-08-17T10:14:50.009Z,39
2018-08-17T10:16:50.289Z,37
2018-08-17T10:18:50.378Z,36
2018-08-17T10:20:51.325Z,36
2018-08-17T10:22:50.518Z,36
2018-08-17T10:24:50.753Z,37
2018-08-17T10:26:50.042Z,37
2018-08-17T10:28:50.490Z,37
2018-08-17T10:30:50.220Z,37
2018-08-17T10:32:50.761Z,38
2018-08-17T10:34:50.394Z,37
2018-08-17T10:36:50.212Z,37
2018-08-17T10:38:50.384Z,38
2018-08-17T10:40:51.104Z,36
2018-08-17T10:42:50.358Z,36
2018-08-17T10:44:50.374Z,37
2018-08-17T10:46:50.728Z,37
2018-08-17T10:48:50.824Z,36
2018-08-17T10:50:49.993Z,36
2018-08-17T10:52:49.979Z,36
2018-08-17T10:54:50.126Z,35
2018-08-17T10:56:50.613Z,36
2018-08-17T10:58:50.722Z,35
2018-08-17T11:00:49.845Z,35
2018-08-17T11:02:49.830Z,35
2018-08-17T11:04:50.413Z,36
2018-08-17T11:06:50.770Z,34
2018-08-17T11:08:49.874Z,34
2018-08-17T11:10:50.112Z,34
2018-08-17T11:12:50.125Z,35
2018-08-17T11:14:50.196Z,35
2018-08-17T11:16:50.758Z,34
2018-08-17T11:18:49.848Z,34
2018-08-17T11:20:49.976Z,34
2018-08-17T11:22:50.351Z,33
2018-08-17T11:24:50.353Z,33
2018-08-17T11:26:50.705Z,33
2018-08-17T11:28:49.896Z,33
2018-08-17T11:30:49.982Z,33
2018-08-17T11:32:50.044Z,34
2018-08-17T11:34:50.322Z,34
2018-08-17T11:36:50.730Z,34
2018-08-17T11:38:49.859Z,34
2018-08-17T11:40:49.969Z,34
2018-08-17T11:42:49.921Z,34
2018-08-17T11:44:49.966Z,34
2018-08-17T11:46:50.398Z,34
2018-08-17T11:48:50.439Z,34
2018-08-17T11:50:50.578Z,33
2018-08-17T11:52:50.634Z,32
2018-08-17T11:54:50.738Z,32
2018-08-17T11:56:50.045Z,32
2018-08-17T11:58:50.193Z,31
2018-08-17T12:00:50.268Z,31
2018-08-17T12:02:50.367Z,32
2018-08-17T12:04:50.732Z,33
2018-08-17T12:06:50.058Z,33
2018-08-17T12:08:50.148Z,31
2018-08-17T12:10:50.212Z,31
2018-08-17T12:12:50.322Z,31
2018-08-17T12:14:50.400Z,31
2018-08-17T12:16:50.697Z,32
2018-08-17T12:18:50.443Z,31
2018-08-17T12:20:50.056Z,31
2018-08-17T12:22:50.439Z,31
2018-08-17T12:24:51.069Z,31
2018-08-17T12:26:50.283Z,31
2018-08-17T12:28:50.483Z,31
2018-08-17T12:30:50.494Z,31
2018-08-17T12:32:49.811Z,32
2018-08-17T12:34:50.450Z,32
2018-08-17T12:36:49.833Z,31
2018-08-17T12:38:49.940Z,30
2018-08-17T12:40:49.991Z,30
2018-08-17T12:42:50.428Z,30
2018-08-17T12:44:50.604Z,30
2018-08-17T12:46:50.100Z,30
2018-08-17T12:48:49.808Z,29
2018-08-17T12:50:49.942Z,29
2018-08-17T12:52:50.193Z,29
2018-08-17T12:54:50.214Z,30
2018-08-17T12:56:50.549Z,29
2018-08-17T12:58:50.593Z,30
2018-08-17T13:00:50.739Z,30
2018-08-17T13:02:50.006Z,30
2018-08-17T13:04:50.545Z,30
2018-08-17T13:06:50.376Z,30
2018-08-17T13:08:50.086Z,30
2018-08-17T13:10:50.586Z,30
2018-08-17T13:12:50.654Z,31
2018-08-17T13:14:50.003Z,30
2018-08-17T13:16:50.286Z,29
2018-08-17T13:18:50.315Z,29
2018-08-17T13:20:50.467Z,29
2018-08-17T13:22:50.498Z,29
2018-08-17T13:24:50.660Z,29
2018-08-17T13:26:49.991Z,29
2018-08-17T13:28:49.968Z,29
2018-08-17T13:30:49.945Z,29
2018-08-17T13:32:50.156Z,28
2018-08-17T13:34:50.651Z,28
2018-08-17T13:36:50.042Z,29
2018-08-17T13:38:50.027Z,29
2018-08-17T13:40:50.126Z,29
2018-08-17T13:42:50.205Z,29
2018-08-17T13:44:50.358Z,29
2018-08-17T13:46:50.676Z,29
2018-08-17T13:48:50.256Z,28
2018-08-17T13:50:50.339Z,28
2018-08-17T13:52:50.328Z,28
2018-08-17T13:54:50.500Z,28
2018-08-17T13:56:50.758Z,28
2018-08-17T13:58:49.810Z,28
2018-08-17T14:00:49.800Z,28
2018-08-17T14:02:49.949Z,28
2018-08-17T14:04:50.579Z,28
2018-08-17T14:06:50.150Z,28
2018-08-17T14:08:50.139Z,28
2018-08-17T14:10:50.141Z,28
2018-08-17T14:12:50.186Z,29
2018-08-17T14:14:50.349Z,29
2018-08-17T14:16:50.706Z,28
2018-08-17T14:18:49.865Z,28
2018-08-17T14:20:49.980Z,28
2018-08-17T14:22:49.965Z,28
2018-08-17T14:24:50.251Z,28
2018-08-17T14:26:50.704Z,28
2018-08-17T14:28:51.048Z,28
2018-08-17T14:30:50.106Z,28
2018-08-17T14:32:50.227Z,28
2018-08-17T14:34:50.799Z,28
2018-08-17T14:36:50.437Z,28
2018-08-17T14:38:50.543Z,28
2018-08-17T14:40:50.604Z,28
2018-08-17T14:42:50.740Z,28
2018-08-17T14:44:49.929Z,28
2018-08-17T14:46:50.217Z,28
2018-08-17T14:48:50.175Z,28
2018-08-17T14:50:50.263Z,28
2018-08-17T14:52:50.356Z,28
2018-08-17T14:54:50.377Z,28
2018-08-17T14:56:50.671Z,28
2018-08-17T14:58:50.701Z,28
2018-08-17T15:00:49.885Z,28
2018-08-17T15:02:50.096Z,28
2018-08-17T15:04:49.826Z,28
2018-08-17T15:06:50.019Z,27
2018-08-17T15:08:49.997Z,26
2018-08-17T15:10:50.157Z,28
2018-08-17T15:12:51.141Z,28
2018-08-17T15:14:50.256Z,28
2018-08-17T15:16:50.572Z,27
2018-08-17T15:18:50.665Z,28
2018-08-17T15:20:50.797Z,28
2018-08-17T15:22:49.996Z,28
2018-08-17T15:24:50.127Z,28
2018-08-17T15:26:50.281Z,28
2018-08-17T15:28:50.309Z,28
2018-08-17T15:30:50.319Z,27
2018-08-17T15:32:50.562Z,27
2018-08-17T15:34:50.276Z,27
2018-08-17T15:36:49.861Z,26
2018-08-17T15:38:49.827Z,26
2018-08-17T15:40:50.615Z,26
2018-08-17T15:42:50.740Z,26
2018-08-17T15:44:49.945Z,26
2018-08-17T15:46:50.203Z,28
2018-08-17T15:48:50.222Z,26
2018-08-17T15:50:50.319Z,26
2018-08-17T15:52:50.421Z,26
2018-08-17T15:54:50.597Z,26
2018-08-17T15:56:49.800Z,26
2018-08-17T15:58:49.866Z,26
2018-08-17T16:00:50.178Z,26
2018-08-17T16:02:50.350Z,26
2018-08-17T16:04:50.533Z,26
2018-08-17T16:06:50.047Z,26
2018-08-17T16:08:50.115Z,28
2018-08-17T16:10:50.142Z,28
2018-08-17T16:12:50.151Z,27
2018-08-17T16:14:50.275Z,28
2018-08-17T16:16:50.537Z,28
2018-08-17T16:18:50.580Z,28
2018-08-17T16:20:50.605Z,28
2018-08-17T16:22:50.731Z,28
2018-08-17T16:24:50.467Z,28
2018-08-17T16:26:50.048Z,28
2018-08-17T16:28:50.059Z,28
2018-08-17T16:30:50.103Z,28
2018-08-17T16:32:50.161Z,28
2018-08-17T16:34:50.757Z,28
2018-08-17T16:36:50.090Z,28
2018-08-17T16:38:50.063Z,28
2018-08-17T16:40:50.105Z,28
2018-08-17T16:42:50.165Z,29
2018-08-17T16:44:50.843Z,29
2018-08-17T16:46:50.246Z,29
2018-08-17T16:48:50.577Z,29
2018-08-17T16:50:50.740Z,29
2018-08-17T16:52:49.858Z,29
2018-08-17T16:54:50.186Z,29
2018-08-17T16:56:50.613Z,29
2018-08-17T16:58:50.786Z,29
2018-08-17T17:00:50.365Z,29
2018-08-17T17:02:50.543Z,29
2018-08-17T17:04:50.284Z,29
2018-08-17T17:06:50.584Z,30
2018-08-17T17:08:50.713Z,30
2018-08-17T17:10:50.761Z,30
2018-08-17T17:12:49.828Z,30
2018-08-17T17:14:50.034Z,30
2018-08-17T17:16:50.401Z,30
2018-08-17T17:18:50.479Z,30
2018-08-17T17:20:51.051Z,30
2018-08-17T17:22:50.225Z,30
2018-08-17T17:24:50.274Z,31
2018-08-17T17:26:50.932Z,31
2018-08-17T17:28:50.119Z,31
2018-08-17T17:30:50.265Z,31
2018-08-17T17:32:50.315Z,31
2018-08-17T17:34:50.419Z,31
2018-08-17T17:36:49.898Z,31
2018-08-17T17:38:50.110Z,31
2018-08-17T17:40:50.146Z,32
2018-08-17T17:42:50.227Z,32
2018-08-17T17:44:50.237Z,32
2018-08-17T17:46:50.616Z,31.2
2018-08-17T17:48:49.801Z,32
2018-08-17T17:50:49.814Z,32
2018-08-17T17:52:50.763Z,32
2018-08-17T17:54:49.877Z,32
2018-08-17T17:56:50.187Z,33
2018-08-17T17:58:50.319Z,33
2018-08-17T18:00:50.310Z,33
2018-08-17T18:02:50.378Z,33
2018-08-17T18:04:50.378Z,33
2018-08-17T18:06:49.955Z,33
2018-08-17T18:08:50.129Z,33
2018-08-17T18:10:50.159Z,35
2018-08-17T18:12:50.224Z,35
2018-08-17T18:14:50.261Z,37
2018-08-17T18:16:50.644Z,37
2018-08-17T18:18:49.825Z,38.1
2018-08-17T18:20:50.074Z,38.5
2018-08-17T18:22:50.068Z,38.5
2018-08-17T18:24:50.094Z,39.2
2018-08-17T18:26:50.461Z,39.5
2018-08-17T18:28:50.675Z,39.8
2018-08-17T18:30:50.643Z,39.9
2018-08-17T18:32:49.836Z,40.5
2018-08-17T18:34:50.393Z,41.2
2018-08-17T18:36:49.799Z,41.8
2018-08-17T18:38:49.926Z,42.5
2018-08-17T18:40:49.980Z,42.7
2018-08-17T18:42:49.933Z,42.9
2018-08-17T18:44:50.014Z,43.0
2018-08-17T18:46:50.352Z,43.1
2018-08-17T18:48:50.427Z,43.3
2018-08-17T18:50:50.471Z,43.6
2018-08-17T18:52:51.056Z,43.8
2018-08-17T18:54:50.650Z,44.4
2018-08-17T18:56:50.024Z,44.6
2018-08-17T18:58:50.026Z,44.9
2018-08-17T19:00:50.075Z,45.1
2018-08-17T19:02:50.173Z,45.1
2018-08-17T19:04:50.750Z,45.4
2018-08-17T19:06:50.172Z,45.5
2018-08-17T19:08:50.190Z,45.6
2018-08-17T19:10:50.237Z,45.7
2018-08-17T19:12:50.378Z,45.8
2018-08-17T19:14:50.479Z,45.8
2018-08-17T19:16:49.826Z,45.9
2018-08-17T19:18:49.843Z,46.0
2018-08-17T19:20:49.860Z,46.1
2018-08-17T19:22:49.937Z,46.4
2018-08-17T19:24:50.117Z,46.4
2018-08-17T19:26:50.390Z,46.5
2018-08-17T19:28:50.613Z,46.6
2018-08-17T19:30:50.564Z,46.9
2018-08-17T19:32:50.600Z,47.1
2018-08-17T19:34:50.182Z,46.8
2018-08-17T19:36:50.501Z,46.9
2018-08-17T19:38:50.569Z,47.1
2018-08-17T19:40:50.524Z,47.1
2018-08-17T19:42:50.600Z,47.4
2018-08-17T19:44:50.727Z,47.7
2018-08-17T19:46:50.103Z,48.1
2018-08-17T19:48:50.120Z,47.6
2018-08-17T19:50:50.177Z,47.4
2018-08-17T19:52:50.555Z,47.4
2018-08-17T19:54:49.815Z,47.4
2018-08-17T19:56:50.164Z,47
2018-08-17T19:58:50.260Z,47
2018-08-17T20:00:50.353Z,47
2018-08-17T20:02:50.466Z,46
2018-08-17T20:04:50.082Z,46
2018-08-17T20:06:50.425Z,46
2018-08-17T20:08:50.573Z,46
2018-08-17T20:10:50.608Z,46
2018-08-17T20:12:50.697Z,46
2018-08-17T20:14:49.876Z,46
2018-08-17T20:16:50.244Z,47
2018-08-17T20:18:50.348Z,46
2018-08-17T20:20:50.471Z,46
2018-08-17T20:22:50.534Z,47
2018-08-17T20:24:50.751Z,47
2018-08-17T20:26:51.385Z,47
2018-08-17T20:28:50.670Z,48
2018-08-17T20:30:50.732Z,48
2018-08-17T20:32:49.926Z,48
2018-08-17T20:34:50.660Z,48
2018-08-17T20:36:49.973Z,48
2018-08-17T20:38:50.217Z,48
2018-08-17T20:40:50.286Z,48
2018-08-17T20:42:50.526Z,47.3
2018-08-17T20:44:50.698Z,47.7
2018-08-17T20:46:50.146Z,48
2018-08-17T20:48:50.215Z,49
2018-08-17T20:50:50.194Z,48.3
2018-08-17T20:52:50.279Z,48.6
2018-08-17T20:54:50.518Z,48.9
2018-08-17T20:56:49.862Z,49.1
2018-08-17T20:58:50.005Z,49.9
2018-08-17T21:00:50.060Z,49.9
2018-08-17T21:02:50.039Z,50.3
2018-08-17T21:04:50.500Z,50.6
2018-08-17T21:06:50.765Z,50.9
2018-08-17T21:08:49.957Z,51.2
2018-08-17T21:10:49.990Z,51.3
2018-08-17T21:12:49.992Z,51.6
2018-08-17T21:14:50.191Z,51.8
2018-08-17T21:16:50.427Z,52.1
2018-08-17T21:18:50.528Z,52.3
2018-08-17T21:20:50.613Z,52.7
2018-08-17T21:22:50.628Z,53.2
2018-08-17T21:24:50.783Z,53.4
2018-08-17T21:26:50.220Z,53.6
2018-08-17T21:28:50.953Z,54.2
2018-08-17T21:30:50.029Z,54.5
2018-08-17T21:32:50.036Z,54.5
2018-08-17T21:34:50.663Z,54.9
2018-08-17T21:36:50.110Z,55.6
2018-08-17T21:38:50.242Z,55.6
2018-08-17T21:40:50.240Z,56.1
2018-08-17T21:42:50.318Z,56.3
2018-08-17T21:44:50.431Z,56.3
2018-08-17T21:46:50.735Z,56.6
2018-08-17T21:48:49.896Z,57.0
2018-08-17T21:50:49.886Z,56.9
2018-08-17T21:52:49.972Z,57.3
2018-08-17T21:54:50.185Z,57.5
2018-08-17T21:56:51.096Z,57.8
2018-08-17T21:58:50.147Z,57.7
2018-08-17T22:00:50.154Z,57.8
2018-08-17T22:02:50.255Z,57.8
2018-08-17T22:04:50.832Z,57.8
2018-08-17T22:06:50.295Z,58.3
2018-08-17T22:08:50.386Z,58.3
2018-08-17T22:10:50.523Z,58.5
2018-08-17T22:12:50.614Z,58.7
2018-08-17T22:14:50.677Z,58.7
2018-08-17T22:16:49.983Z,58.7
2018-08-17T22:18:50.259Z,59.1
2018-08-17T22:20:50.323Z,59.1
2018-08-17T22:22:50.352Z,59.0
2018-08-17T22:24:50.433Z,59.0
2018-08-17T22:26:49.867Z,58.8
2018-08-17T22:28:50.002Z,58.9
2018-08-17T22:30:50.336Z,59.0
2018-08-17T22:32:50.388Z,59.1
2018-08-17T22:34:49.902Z,60.3
2018-08-17T22:36:50.257Z,60.4
2018-08-17T22:38:50.573Z,60.7
2018-08-17T22:40:50.675Z,61.0
2018-08-17T22:42:50.718Z,61.1
2018-08-17T22:44:49.857Z,61.4
2018-08-17T22:46:50.398Z,62.0
2018-08-17T22:48:51.212Z,62.3
2018-08-17T22:50:50.291Z,62.3
2018-08-17T22:52:50.341Z,62.7
2018-08-17T22:54:50.460Z,62.9
2018-08-17T22:56:50.779Z,63.0
2018-08-17T22:58:50.078Z,63.1
2018-08-17T23:00:50.134Z,63.2
2018-08-17T23:02:50.235Z,63.2
2018-08-17T23:04:50.708Z,62.6
2018-08-17T23:06:50.531Z,63.0
2018-08-17T23:08:50.652Z,62.6
2018-08-17T23:10:50.637Z,62.4
2018-08-17T23:12:50.742Z,62.8
2018-08-17T23:14:50.286Z,62.3
2018-08-17T23:16:50.798Z,62.0
2018-08-17T23:18:49.824Z,61.9
2018-08-17T23:20:49.883Z,61.8
2018-08-17T23:22:49.932Z,58
2018-08-17T23:24:50.085Z,58
2018-08-17T23:26:50.439Z,58
2018-08-17T23:28:50.491Z,58
2018-08-17T23:30:50.537Z,58
2018-08-17T23:32:50.786Z,58
2018-08-17T23:34:50.516Z,58
2018-08-17T23:36:49.910Z,64.1
2018-08-17T23:38:50.048Z,64.1
2018-08-17T23:40:50.225Z,65.6
2018-08-17T23:42:50.251Z,65.6
2018-08-17T23:44:50.415Z,66.5
2018-08-17T23:46:50.672Z,67.7
2018-08-17T23:48:49.964Z,68.1
2018-08-17T23:50:49.964Z,68.5
2018-08-17T23:52:50.079Z,68.8
2018-08-17T23:54:50.199Z,69.4
2018-08-17T23:56:50.636Z,69.4
2018-08-17T23:58:50.755Z,70.1
